Time;durP1;ratioP1;P1;durP2;ratioP2;P2;SDS_P1;SDS_P2;PMS_P1;PMS_P2;Temp;Humidity;BMP_temperature;BMP_pressure;BME280_temperature;BME280_humidity;BME280_pressure;Samples;Min_cycle;Max_cycle;Signal;HPM_P1;HPM_P2
2023/02/12 00:01:27;;;;;;;12.40;5.13;;;5.60;98.00;;;;;;5094513;28;20456;-65
2023/02/12 00:03:54;;;;;;;12.80;5.20;;;5.50;98.00;;;;;;5094519;28;20967;-65
2023/02/12 00:06:23;;;;;;;17.20;5.90;;;5.50;98.00;;;;;;5094197;28;20456;-65
2023/02/12 00:08:52;;;;;;;11.90;5.23;;;5.50;98.00;;;;;;5094201;28;20468;-65
2023/02/12 00:11:22;;;;;;;9.97;4.90;;;5.40;98.00;;;;;;5094087;28;20461;-65
2023/02/12 00:13:49;;;;;;;14.30;6.37;;;5.40;98.00;;;;;;5094110;28;21004;-65
2023/02/12 00:16:18;;;;;;;11.40;5.37;;;5.40;98.00;;;;;;5093966;28;20985;-65
2023/02/12 00:18:45;;;;;;;10.80;5.17;;;5.30;98.00;;;;;;5094125;28;20457;-65
2023/02/12 00:21:13;;;;;;;14.37;5.70;;;5.30;98.00;;;;;;5093799;28;20859;-65
2023/02/12 00:23:42;;;;;;;18.90;6.20;;;5.40;98.00;;;;;;5093944;28;21007;-65
2023/02/12 00:26:11;;;;;;;10.77;5.63;;;5.30;98.00;;;;;;5094071;28;20815;-66
2023/02/12 00:28:39;;;;;;;13.67;5.37;;;5.30;98.00;;;;;;5093815;28;20514;-65
2023/02/12 00:31:08;;;;;;;11.47;6.50;;;5.30;98.00;;;;;;5093730;28;20456;-65
2023/02/12 00:33:35;;;;;;;9.47;4.33;;;5.20;98.00;;;;;;5093717;28;20461;-65
2023/02/12 00:36:02;;;;;;;13.60;5.90;;;5.20;98.00;;;;;;5093380;28;20494;-64
2023/02/12 00:38:30;;;;;;;11.70;6.03;;;5.20;98.00;;;;;;5093716;28;21025;-65
2023/02/12 00:40:58;;;;;;;9.43;5.33;;;5.30;98.00;;;;;;5093526;28;20451;-66
2023/02/12 00:43:25;;;;;;;7.37;4.10;;;5.40;98.00;;;;;;5093536;28;20444;-65
2023/02/12 00:45:52;;;;;;;10.00;4.87;;;5.40;98.00;;;;;;5092072;28;20461;-65
2023/02/12 00:48:22;;;;;;;10.60;5.70;;;5.50;98.00;;;;;;5093404;28;20520;-66
2023/02/12 00:50:50;;;;;;;9.80;5.03;;;5.50;98.00;;;;;;5093098;28;20465;-65
2023/02/12 00:53:18;;;;;;;9.60;4.23;;;5.60;98.00;;;;;;5093468;28;20515;-65
2023/02/12 00:55:45;;;;;;;18.73;6.33;;;5.40;98.00;;;;;;5093136;28;20505;-65
2023/02/12 00:58:15;;;;;;;13.50;5.40;;;5.40;98.00;;;;;;5093394;28;20452;-66
2023/02/12 01:00:43;;;;;;;9.20;5.20;;;5.40;98.00;;;;;;5093399;28;20448;-66
2023/02/12 01:03:10;;;;;;;11.53;4.73;;;5.30;98.00;;;;;;5093301;28;20482;-65
2023/02/12 01:05:37;;;;;;;9.40;4.37;;;5.40;98.00;;;;;;5093105;28;20453;-66
2023/02/12 01:08:05;;;;;;;10.27;4.70;;;5.50;98.00;;;;;;5093062;28;20459;-65
2023/02/12 01:10:33;;;;;;;15.70;5.27;;;5.50;98.00;;;;;;5093117;28;20510;-66
2023/02/12 01:13:00;;;;;;;16.57;4.73;;;5.50;98.00;;;;;;5092095;28;20980;-65
2023/02/12 01:15:29;;;;;;;13.60;5.03;;;5.50;98.00;;;;;;5092992;28;20841;-65
2023/02/12 01:17:56;;;;;;;8.40;4.43;;;5.50;98.00;;;;;;5093813;28;20461;-66
2023/02/12 01:20:25;;;;;;;13.60;5.50;;;5.60;98.00;;;;;;5093133;28;20449;-65
2023/02/12 01:22:52;;;;;;;13.87;5.47;;;5.50;98.00;;;;;;5093748;28;21010;-65
2023/02/12 01:25:20;;;;;;;7.27;4.40;;;5.50;98.00;;;;;;5092419;28;20975;-65
2023/02/12 01:27:47;;;;;;;10.67;4.63;;;5.30;98.00;;;;;;5092685;28;20825;-64
2023/02/12 01:30:15;;;;;;;12.40;5.40;;;5.30;98.00;;;;;;5092885;28;20455;-66
2023/02/12 01:32:44;;;;;;;12.90;6.20;;;5.30;98.00;;;;;;5092605;28;20450;-65
2023/02/12 01:35:11;;;;;;;10.60;5.00;;;5.20;98.00;;;;;;5092508;28;20479;-66
2023/02/12 01:37:39;;;;;;;8.97;5.10;;;5.20;98.00;;;;;;5092571;28;20477;-65
2023/02/12 01:40:08;;;;;;;9.70;4.97;;;5.20;98.00;;;;;;5092412;28;20456;-66
2023/02/12 01:42:35;;;;;;;9.00;4.70;;;5.30;98.00;;;;;;5092289;28;20453;-65
2023/02/12 01:45:52;;;;;;;10.67;5.50;;;5.30;98.00;;;;;;5092449;28;20543;-65
2023/02/12 01:48:23;;;;;;;14.43;5.87;;;5.40;98.00;;;;;;5092497;28;20512;-65
2023/02/12 01:50:53;;;;;;;13.03;5.60;;;5.30;98.00;;;;;;5091985;28;20481;-65
2023/02/12 01:53:22;;;;;;;7.27;4.10;;;5.30;98.00;;;;;;5092321;28;20835;-65
2023/02/12 01:55:54;;;;;;;9.10;5.00;;;5.40;98.00;;;;;;5091975;28;20887;-65
2023/02/12 01:58:22;;;;;;;13.60;5.60;;;5.40;98.00;;;;;;5091094;28;20459;-66
2023/02/12 02:00:49;;;;;;;11.57;5.77;;;5.30;98.00;;;;;;5092197;28;20489;-64
2023/02/12 02:03:17;;;;;;;9.80;4.30;;;5.30;98.00;;;;;;5092216;28;20488;-65
2023/02/12 02:05:53;;;;;;;9.33;4.90;;;5.20;98.00;;;;;;5091918;28;20460;-64
2023/02/12 02:08:20;;;;;;;8.73;4.50;;;5.20;98.00;;;;;;5092072;28;20747;-65
2023/02/12 02:10:47;;;;;;;13.70;5.53;;;5.20;98.00;;;;;;5091715;28;20467;-65
2023/02/12 02:16:02;;;;;;;9.90;5.27;;;5.20;98.00;;;;;;5091469;28;20478;-65
2023/02/12 02:18:39;;;;;;;12.57;5.93;;;5.20;98.00;;;;;;5091775;28;20944;-65
2023/02/12 02:21:35;;;;;;;10.17;4.80;;;5.10;98.00;;;;;;5091535;28;20455;-65
2023/02/12 02:24:29;;;;;;;11.67;5.17;;;5.10;98.00;;;;;;5091621;28;20457;-65
2023/02/12 02:27:20;;;;;;;14.67;5.20;;;5.10;98.00;;;;;;5091581;28;20465;-65
2023/02/12 02:30:24;;;;;;;11.50;4.93;;;5.10;98.00;;;;;;5091682;28;20459;-65
2023/02/12 02:32:59;;;;;;;7.23;4.30;;;5.20;98.00;;;;;;5091407;28;20505;-65
2023/02/12 02:35:41;;;;;;;9.33;5.57;;;5.20;98.00;;;;;;5091494;28;20916;-64
2023/02/12 02:38:21;;;;;;;9.83;4.90;;;5.20;98.00;;;;;;5091522;28;20642;-65
2023/02/12 02:40:53;;;;;;;7.20;4.10;;;5.30;98.00;;;;;;5091410;28;20515;-65
2023/02/12 02:43:23;;;;;;;9.93;4.90;;;5.30;98.00;;;;;;5091518;28;21010;-65
2023/02/12 02:45:57;;;;;;;9.57;5.70;;;5.30;98.00;;;;;;5090715;28;20458;-65
2023/02/12 02:48:28;;;;;;;11.70;4.20;;;5.40;98.00;;;;;;5091421;28;20503;-65
2023/02/12 02:51:01;;;;;;;15.07;4.80;;;5.40;98.00;;;;;;5091146;28;20460;-65
2023/02/12 02:53:36;;;;;;;10.37;4.53;;;5.40;98.00;;;;;;5091301;28;20988;-66
2023/02/12 02:56:07;;;;;;;12.03;5.30;;;5.40;98.00;;;;;;5091215;28;20575;-65
2023/02/12 02:58:39;;;;;;;12.60;6.20;;;5.40;98.00;;;;;;5091422;28;20498;-65
2023/02/12 03:01:13;;;;;;;15.93;4.90;;;5.50;98.00;;;;;;5091361;28;20458;-65
2023/02/12 03:03:45;;;;;;;8.87;4.27;;;5.50;98.00;;;;;;5091327;28;20457;-65
2023/02/12 03:06:17;;;;;;;11.13;5.47;;;5.60;98.00;;;;;;5091171;28;20452;-65
2023/02/12 03:08:50;;;;;;;12.53;5.13;;;5.50;98.00;;;;;;5091290;28;20867;-65
2023/02/12 03:11:22;;;;;;;10.03;4.50;;;5.40;98.00;;;;;;5091037;28;20464;-65
2023/02/12 03:13:57;;;;;;;11.80;5.60;;;5.30;98.00;;;;;;5091077;28;20468;-65
2023/02/12 03:16:28;;;;;;;14.17;5.57;;;5.20;98.00;;;;;;5090902;28;20532;-65
2023/02/12 03:18:58;;;;;;;8.93;3.93;;;5.10;98.00;;;;;;5091075;28;20452;-65
2023/02/12 03:21:30;;;;;;;11.93;5.57;;;5.10;98.00;;;;;;5091074;28;20453;-65
2023/02/12 03:24:05;;;;;;;10.00;4.40;;;5.10;98.00;;;;;;5090970;28;20470;-65
2023/02/12 03:26:39;;;;;;;11.87;5.60;;;5.00;98.00;;;;;;5090901;28;20454;-64
2023/02/12 03:29:06;;;;;;;12.10;5.80;;;4.90;98.00;;;;;;5090931;28;21277;-65
2023/02/12 03:31:57;;;;;;;8.80;4.40;;;4.90;98.00;;;;;;5090823;28;20447;-65
2023/02/12 03:34:31;;;;;;;11.03;4.47;;;4.90;98.00;;;;;;5093955;28;20461;-65
2023/02/12 03:37:03;;;;;;;7.93;4.90;;;5.00;98.00;;;;;;5094895;28;20516;-65
2023/02/12 03:39:39;;;;;;;9.87;5.40;;;5.00;98.00;;;;;;5094784;28;20463;-65
2023/02/12 03:42:11;;;;;;;7.10;4.60;;;5.00;98.00;;;;;;5094645;28;20452;-65
2023/02/12 03:44:51;;;;;;;8.20;4.10;;;5.00;98.00;;;;;;5094814;28;20467;-65
2023/02/12 03:47:25;;;;;;;7.13;4.13;;;5.00;98.00;;;;;;5094562;28;20516;-65
2023/02/12 03:50:00;;;;;;;17.37;4.20;;;5.00;98.00;;;;;;5094414;28;20464;-65
2023/02/12 03:52:29;;;;;;;7.87;3.87;;;5.00;98.00;;;;;;5094726;28;20450;-66
2023/02/12 03:54:56;;;;;;;10.60;3.87;;;5.00;98.00;;;;;;5094393;28;20468;-65
2023/02/12 03:57:29;;;;;;;9.97;5.30;;;5.00;98.00;;;;;;5094573;28;20488;-66
2023/02/12 03:59:57;;;;;;;12.00;5.33;;;5.10;98.00;;;;;;5094796;28;20505;-65
2023/02/12 04:02:26;;;;;;;9.27;4.70;;;5.20;98.00;;;;;;5094486;28;20974;-65
2023/02/12 04:04:53;;;;;;;10.40;5.60;;;5.30;98.00;;;;;;5094225;28;20942;-65
2023/02/12 04:07:22;;;;;;;6.90;3.87;;;5.30;98.00;;;;;;5094213;28;20517;-65
2023/02/12 04:09:49;;;;;;;10.63;4.83;;;5.30;98.00;;;;;;5094089;28;20472;-64
2023/02/12 04:12:33;;;;;;;8.20;4.63;;;5.20;98.00;;;;;;5094323;28;20454;-65
2023/02/12 04:15:12;;;;;;;11.43;5.03;;;5.20;98.00;;;;;;5094091;28;20734;-65
2023/02/12 04:17:49;;;;;;;8.40;4.20;;;5.10;98.00;;;;;;5094073;28;20561;-66
2023/02/12 04:20:25;;;;;;;5.13;4.07;;;5.00;98.00;;;;;;5094109;28;20461;-65
2023/02/12 04:22:59;;;;;;;7.60;4.00;;;5.00;98.00;;;;;;5093848;28;20462;-65
2023/02/12 04:25:51;;;;;;;5.03;3.53;;;5.00;98.00;;;;;;5094048;28;20466;-65
2023/02/12 04:28:28;;;;;;;9.03;4.17;;;5.00;98.00;;;;;;5094008;28;20848;-66
2023/02/12 04:30:59;;;;;;;11.90;4.60;;;5.10;98.00;;;;;;5093653;28;21016;-65
2023/02/12 04:33:35;;;;;;;11.83;5.10;;;5.10;98.00;;;;;;5093894;28;20829;-65
2023/02/12 04:36:06;;;;;;;8.50;4.80;;;5.10;98.00;;;;;;5092241;28;20487;-65
2023/02/12 04:38:40;;;;;;;9.83;4.43;;;5.10;98.00;;;;;;5093682;28;20549;-65
2023/02/12 04:41:08;;;;;;;7.67;4.47;;;5.10;98.00;;;;;;5093838;28;20469;-65
2023/02/12 04:43:37;;;;;;;7.63;4.60;;;5.10;98.00;;;;;;5093392;28;20869;-65
2023/02/12 04:46:06;;;;;;;9.63;3.67;;;5.10;98.00;;;;;;5093347;28;20522;-65
2023/02/12 04:48:34;;;;;;;8.03;4.37;;;5.10;98.00;;;;;;5093412;28;20457;-66
2023/02/12 04:51:02;;;;;;;10.27;5.23;;;5.00;98.00;;;;;;5093137;28;20460;-65
2023/02/12 04:53:29;;;;;;;14.23;5.60;;;5.00;98.00;;;;;;5093530;28;20457;-65
2023/02/12 04:55:56;;;;;;;10.93;4.70;;;5.00;98.00;;;;;;5093305;28;20482;-65
2023/02/12 04:58:23;;;;;;;9.90;3.70;;;4.90;98.00;;;;;;5093538;28;21009;-65
2023/02/12 05:00:50;;;;;;;12.30;5.03;;;5.00;98.00;;;;;;5093256;28;20457;-65
2023/02/12 05:03:17;;;;;;;5.70;3.70;;;5.00;98.00;;;;;;5093410;28;20450;-65
2023/02/12 05:05:46;;;;;;;10.43;4.73;;;4.90;98.00;;;;;;5093239;28;20876;-65
2023/02/12 05:08:13;;;;;;;7.07;4.03;;;4.90;98.00;;;;;;5092964;28;20460;-65
2023/02/12 05:10:40;;;;;;;9.03;4.60;;;5.00;98.00;;;;;;5093126;28;20462;-65
2023/02/12 05:13:07;;;;;;;7.10;3.97;;;5.00;98.00;;;;;;5092874;28;20518;-65
2023/02/12 05:15:34;;;;;;;14.30;5.43;;;5.00;98.00;;;;;;5093080;28;20479;-65
2023/02/12 05:18:01;;;;;;;11.50;4.83;;;5.00;98.00;;;;;;5092771;28;20948;-65
2023/02/12 05:20:28;;;;;;;6.47;4.37;;;5.00;98.00;;;;;;5092884;28;20459;-65
2023/02/12 05:22:57;;;;;;;11.70;4.23;;;5.00;98.00;;;;;;5092670;28;20464;-65
2023/02/12 05:25:24;;;;;;;6.70;4.43;;;5.00;98.00;;;;;;5092672;28;20462;-65
2023/02/12 05:27:51;;;;;;;11.57;4.43;;;5.00;98.00;;;;;;5092614;28;20973;-65
2023/02/12 05:30:19;;;;;;;7.23;4.57;;;4.90;98.00;;;;;;5092716;28;20464;-66
2023/02/12 05:32:47;;;;;;;9.93;5.20;;;4.80;98.00;;;;;;5091329;28;20502;-65
2023/02/12 05:35:14;;;;;;;10.53;4.60;;;4.70;98.00;;;;;;5092459;28;20458;-65
2023/02/12 05:37:41;;;;;;;4.67;3.60;;;4.70;98.00;;;;;;5092461;28;20490;-65
2023/02/12 05:40:11;;;;;;;10.03;4.40;;;4.60;98.00;;;;;;5092451;28;20452;-66
2023/02/12 05:42:38;;;;;;;4.80;3.87;;;4.60;98.00;;;;;;5092473;28;20871;-65
2023/02/12 05:45:06;;;;;;;8.27;4.20;;;4.60;98.00;;;;;;5092597;28;20504;-64
2023/02/12 05:47:34;;;;;;;10.73;4.53;;;4.60;98.00;;;;;;5092449;28;20939;-65
2023/02/12 05:50:01;;;;;;;11.17;4.80;;;4.50;98.00;;;;;;5092173;28;20463;-65
2023/02/12 05:52:28;;;;;;;9.30;4.77;;;4.50;98.00;;;;;;5092384;28;20494;-65
2023/02/12 05:54:55;;;;;;;8.63;4.20;;;4.50;98.00;;;;;;5092683;28;20882;-65
2023/02/12 05:57:23;;;;;;;6.87;3.80;;;4.40;98.00;;;;;;5091630;28;20480;-65
2023/02/12 05:59:50;;;;;;;8.17;4.17;;;4.40;98.00;;;;;;5092170;28;20522;-65
2023/02/12 06:02:17;;;;;;;10.07;5.53;;;4.30;98.00;;;;;;5092044;28;20454;-65
2023/02/12 06:04:44;;;;;;;6.10;4.30;;;4.30;98.00;;;;;;5092185;28;20679;-65
2023/02/12 06:07:11;;;;;;;8.47;4.63;;;4.40;98.00;;;;;;5091873;28;20499;-65
2023/02/12 06:09:39;;;;;;;8.80;3.83;;;4.40;98.00;;;;;;5092073;28;20981;-65
2023/02/12 06:12:06;;;;;;;8.67;4.43;;;4.50;98.00;;;;;;5091841;28;20508;-65
2023/02/12 06:14:34;;;;;;;11.80;5.87;;;4.60;98.00;;;;;;5092069;28;20461;-64
2023/02/12 06:17:01;;;;;;;13.77;5.00;;;4.50;98.00;;;;;;5091586;28;20485;-65
2023/02/12 06:19:29;;;;;;;6.73;4.47;;;4.50;98.00;;;;;;5091815;28;20463;-65
2023/02/12 06:21:56;;;;;;;9.77;4.70;;;4.50;98.00;;;;;;5091621;28;20456;-65
2023/02/12 06:24:23;;;;;;;7.50;4.57;;;4.40;98.00;;;;;;5092869;28;20484;-64
2023/02/12 06:26:51;;;;;;;8.27;4.90;;;4.40;98.00;;;;;;5091966;28;20826;-65
2023/02/12 06:29:18;;;;;;;10.20;5.47;;;4.40;98.00;;;;;;5092982;28;20881;-65
2023/02/12 06:31:47;;;;;;;8.40;4.50;;;4.40;98.00;;;;;;5091947;28;20879;-65
2023/02/12 06:34:16;;;;;;;8.07;4.33;;;4.30;98.00;;;;;;5091634;28;20535;-64
2023/02/12 06:36:45;;;;;;;10.33;5.33;;;4.30;98.00;;;;;;5091387;28;20483;-65
2023/02/12 06:39:13;;;;;;;11.20;5.17;;;4.30;98.00;;;;;;5091810;28;20960;-64
2023/02/12 06:41:40;;;;;;;17.60;4.77;;;4.40;98.00;;;;;;5091080;28;20880;-65
2023/02/12 06:44:08;;;;;;;18.73;4.87;;;4.50;98.00;;;;;;5091405;28;20444;-65
2023/02/12 06:46:35;;;;;;;8.07;3.53;;;4.60;98.00;;;;;;5091253;28;20453;-63
2023/02/12 06:49:04;;;;;;;10.23;4.90;;;4.80;98.00;;;;;;5091414;28;20454;-63
2023/02/12 06:51:31;;;;;;;8.73;4.83;;;4.80;98.00;;;;;;5091213;28;20470;-63
2023/02/12 06:53:58;;;;;;;10.13;5.20;;;4.70;98.00;;;;;;5091398;28;20595;-64
2023/02/12 06:56:26;;;;;;;10.87;4.07;;;4.70;98.00;;;;;;5091607;28;20475;-64
2023/02/12 06:58:56;;;;;;;11.10;5.63;;;4.70;98.00;;;;;;5091850;28;20458;-63
2023/02/12 07:01:25;;;;;;;15.60;5.10;;;4.60;98.00;;;;;;5091572;28;20457;-65
2023/02/12 07:03:54;;;;;;;7.17;4.50;;;4.60;98.00;;;;;;5091509;28;20462;-72
2023/02/12 07:06:27;;;;;;;9.33;3.80;;;4.60;98.00;;;;;;5091311;28;20509;-74
2023/02/12 07:08:54;;;;;;;6.40;4.27;;;4.60;98.00;;;;;;5095296;28;20482;-74
2023/02/12 07:11:24;;;;;;;12.60;5.30;;;4.60;98.00;;;;;;5095521;28;20443;-75
2023/02/12 07:13:51;;;;;;;7.97;3.80;;;4.60;98.00;;;;;;5095410;28;20456;-73
2023/02/12 07:16:18;;;;;;;8.90;4.90;;;4.60;98.00;;;;;;5095544;28;20859;-73
2023/02/12 07:18:45;;;;;;;9.80;4.50;;;4.60;98.00;;;;;;5095248;28;20976;-75
2023/02/12 07:21:14;;;;;;;7.57;3.80;;;4.70;98.00;;;;;;5094969;28;20458;-74
2023/02/12 07:23:46;;;;;;;9.20;4.97;;;4.80;98.00;;;;;;5095231;28;20474;-74
2023/02/12 07:26:14;;;;;;;10.90;4.87;;;4.80;98.00;;;;;;5094853;28;20459;-72
2023/02/12 07:28:42;;;;;;;9.87;4.10;;;4.90;98.00;;;;;;5095383;28;20460;-73
2023/02/12 07:31:12;;;;;;;8.00;4.23;;;4.90;98.00;;;;;;5095008;28;20452;-75
2023/02/12 07:33:39;;;;;;;7.97;4.80;;;4.90;98.00;;;;;;5094991;28;20463;-74
2023/02/12 07:36:09;;;;;;;10.83;5.70;;;4.80;98.00;;;;;;5094880;28;20475;-73
2023/02/12 07:38:38;;;;;;;8.47;4.53;;;4.90;98.00;;;;;;5094787;28;20466;-75
2023/02/12 07:41:12;;;;;;;7.20;4.47;;;4.90;98.00;;;;;;5094794;28;20491;-76
2023/02/12 07:43:39;;;;;;;6.30;4.30;;;4.90;98.00;;;;;;5094722;28;20542;-73
2023/02/12 07:46:11;;;;;;;9.13;4.50;;;5.00;98.00;;;;;;5094827;28;20504;-73
2023/02/12 07:48:38;;;;;;;8.73;4.27;;;5.00;98.00;;;;;;5076863;28;20525;-73
2023/02/12 07:51:08;;;;;;;8.63;4.90;;;5.20;98.00;;;;;;5094490;28;20469;-72
2023/02/12 07:53:35;;;;;;;10.50;4.23;;;5.30;98.00;;;;;;5094601;28;20452;-74
2023/02/12 07:56:12;;;;;;;10.70;5.50;;;5.30;98.00;;;;;;5094636;28;20481;-76
2023/02/12 07:58:43;;;;;;;7.37;3.93;;;5.40;98.00;;;;;;5094519;28;20489;-76
2023/02/12 08:01:17;;;;;;;7.40;4.87;;;5.50;98.00;;;;;;5094645;28;20458;-73
2023/02/12 08:03:45;;;;;;;11.53;5.00;;;5.70;98.00;;;;;;5094365;28;20494;-74
2023/02/12 08:06:15;;;;;;;11.77;5.37;;;5.70;98.00;;;;;;5094336;28;20475;-77
2023/02/12 08:08:44;;;;;;;9.83;5.40;;;5.70;98.00;;;;;;5094367;28;20452;-72
2023/02/12 08:11:14;;;;;;;11.03;5.10;;;5.70;98.00;;;;;;5094194;28;20453;-75
2023/02/12 08:13:42;;;;;;;15.33;5.40;;;5.60;98.00;;;;;;5094058;28;20448;-76
2023/02/12 08:16:12;;;;;;;11.20;5.47;;;5.80;98.00;;;;;;5094151;28;20481;-74
2023/02/12 08:18:39;;;;;;;9.60;4.40;;;5.80;98.00;;;;;;5093221;28;20489;-73
2023/02/12 08:21:08;;;;;;;11.80;5.87;;;5.70;98.00;;;;;;5093841;28;20467;-75
2023/02/12 08:23:35;;;;;;;8.63;4.30;;;5.60;98.00;;;;;;5093936;28;20501;-73
2023/02/12 08:26:11;;;;;;;8.90;4.37;;;5.60;98.00;;;;;;5093603;28;20449;-76
2023/02/12 08:28:41;;;;;;;14.30;4.80;;;5.60;98.00;;;;;;5094324;28;20973;-72
2023/02/12 08:31:14;;;;;;;12.57;5.87;;;5.80;98.00;;;;;;5094569;28;20480;-73
2023/02/12 08:33:41;;;;;;;7.33;4.20;;;5.80;98.00;;;;;;5094607;28;20492;-75
2023/02/12 08:36:18;;;;;;;12.70;5.00;;;5.90;98.00;;;;;;5094440;28;20450;-74
2023/02/12 08:38:47;;;;;;;12.70;5.87;;;5.90;98.00;;;;;;5094576;28;21002;-74
2023/02/12 08:41:16;;;;;;;9.23;5.10;;;6.10;98.00;;;;;;5094373;28;20519;-76
2023/02/12 08:43:45;;;;;;;10.63;5.60;;;6.10;98.00;;;;;;5094414;28;20552;-75
2023/02/12 08:46:14;;;;;;;9.07;4.70;;;6.00;98.00;;;;;;5094344;28;20457;-76
2023/02/12 08:48:42;;;;;;;12.83;5.50;;;6.10;98.00;;;;;;5094188;28;20461;-75
2023/02/12 08:51:11;;;;;;;14.07;6.60;;;6.20;98.00;;;;;;5094266;28;20470;-76
2023/02/12 08:53:41;;;;;;;10.03;4.83;;;6.40;98.00;;;;;;5094293;28;20516;-72
2023/02/12 08:56:09;;;;;;;12.57;6.23;;;6.40;98.00;;;;;;5093065;28;20453;-74
2023/02/12 08:58:37;;;;;;;9.40;5.30;;;6.50;98.00;;;;;;5093880;28;20522;-75
2023/02/12 09:01:10;;;;;;;15.13;6.10;;;6.50;98.00;;;;;;5094137;28;20526;-73
2023/02/12 09:03:38;;;;;;;11.03;5.30;;;6.50;98.00;;;;;;5093760;28;20453;-74
2023/02/12 09:06:07;;;;;;;13.40;5.70;;;6.40;98.00;;;;;;5093883;28;20970;-77
2023/02/12 09:08:34;;;;;;;13.87;7.17;;;6.40;98.00;;;;;;5092315;28;20516;-75
2023/02/12 09:11:13;;;;;;;15.83;6.00;;;6.50;98.00;;;;;;5093826;28;20620;-75
2023/02/12 09:13:40;;;;;;;12.50;5.37;;;6.60;98.00;;;;;;5093888;28;20495;-76
2023/02/12 09:16:09;;;;;;;18.40;5.00;;;6.80;98.00;;;;;;5093715;28;20890;-74
2023/02/12 09:18:37;;;;;;;11.53;5.93;;;7.00;98.00;;;;;;5093284;28;20480;-76
2023/02/12 09:21:06;;;;;;;15.70;5.83;;;7.20;98.00;;;;;;5093632;28;20522;-73
2023/02/12 09:23:34;;;;;;;36.20;11.33;;;7.20;98.00;;;;;;5093445;28;20451;-74
2023/02/12 09:26:04;;;;;;;52.20;17.27;;;7.30;98.00;;;;;;5093608;28;20447;-73
2023/02/12 09:28:32;;;;;;;56.73;17.27;;;7.50;98.00;;;;;;5093608;28;20917;-75
2023/02/12 09:30:59;;;;;;;68.90;15.33;;;7.60;98.00;;;;;;5092456;28;20958;-74
2023/02/12 09:33:27;;;;;;;39.93;15.10;;;7.80;98.00;;;;;;5093278;28;20511;-72
2023/02/12 09:36:02;;;;;;;23.10;8.77;;;7.80;98.00;;;;;;5093415;28;20482;-74
2023/02/12 09:38:29;;;;;;;23.57;7.10;;;7.80;98.00;;;;;;5093452;28;20566;-74
2023/02/12 09:41:19;;;;;;;21.80;8.07;;;7.80;98.00;;;;;;5093316;28;20464;-74
2023/02/12 09:43:53;;;;;;;18.00;7.00;;;7.80;98.00;;;;;;5093217;28;20461;-75
2023/02/12 09:46:28;;;;;;;17.07;7.50;;;7.80;98.00;;;;;;5093315;28;20466;-76
2023/02/12 09:49:05;;;;;;;20.47;9.00;;;7.80;98.00;;;;;;5093558;28;20454;-75
2023/02/12 09:51:33;;;;;;;18.80;8.60;;;7.90;98.00;;;;;;5093152;28;20470;-75
2023/02/12 09:54:05;;;;;;;13.90;7.27;;;7.90;98.00;;;;;;5093049;28;20455;-74
2023/02/12 09:56:34;;;;;;;21.23;8.40;;;8.10;98.00;;;;;;5092977;28;20454;-75
2023/02/12 09:59:06;;;;;;;17.73;7.07;;;8.20;98.00;;;;;;5092905;28;20490;-76
2023/02/12 10:01:33;;;;;;;21.23;8.23;;;8.40;98.00;;;;;;5092665;28;20493;-75
2023/02/12 10:04:05;;;;;;;16.17;7.17;;;8.40;98.00;;;;;;5093048;28;20525;-74
2023/02/12 10:06:38;;;;;;;17.63;7.40;;;8.40;98.00;;;;;;5092625;28;20861;-75
2023/02/12 10:09:30;;;;;;;15.73;5.87;;;8.40;98.00;;;;;;5091190;28;20458;-77
2023/02/12 10:12:04;;;;;;;21.70;6.20;;;8.60;98.00;;;;;;5092455;28;20459;-75
2023/02/12 10:15:06;;;;;;;10.60;5.40;;;8.70;98.00;;;;;;5092471;28;20462;-76
2023/02/12 10:17:41;;;;;;;16.57;7.40;;;8.90;98.00;;;;;;5092337;28;20478;-76
2023/02/12 10:20:36;;;;;;;20.60;7.73;;;8.90;98.00;;;;;;5092487;28;20451;-73
2023/02/12 10:23:14;;;;;;;19.13;6.90;;;8.90;98.00;;;;;;5092275;28;20456;-75
2023/02/12 10:25:48;;;;;;;16.67;6.60;;;9.10;98.00;;;;;;5091247;28;20455;-77
2023/02/12 10:28:19;;;;;;;22.23;7.10;;;9.10;98.00;;;;;;5091200;28;20512;-74
2023/02/12 10:30:51;;;;;;;20.40;6.67;;;9.20;98.00;;;;;;5091019;28;20455;-73
2023/02/12 10:33:25;;;;;;;12.87;5.67;;;9.20;98.00;;;;;;5092375;28;20551;-77
2023/02/12 10:35:59;;;;;;;10.77;5.20;;;9.20;98.00;;;;;;5092222;28;20941;-77
2023/02/12 10:38:31;;;;;;;10.43;3.93;;;9.10;98.00;;;;;;5092362;28;20491;-75
2023/02/12 10:41:01;;;;;;;4.73;2.67;;;9.10;98.00;;;;;;5092316;28;20452;-75
2023/02/12 10:43:29;;;;;;;5.50;2.60;;;9.10;98.00;;;;;;5092076;28;20483;-74
2023/02/12 10:45:56;;;;;;;3.53;2.10;;;9.00;98.00;;;;;;5092109;28;20462;-75
2023/02/12 10:48:28;;;;;;;2.67;1.73;;;9.10;98.00;;;;;;5091916;28;20468;-75
2023/02/12 10:51:12;;;;;;;4.60;2.20;;;9.00;98.00;;;;;;5092016;28;20527;-77
2023/02/12 10:53:42;;;;;;;5.40;2.57;;;9.00;98.00;;;;;;5091553;28;20439;-76
2023/02/12 10:56:17;;;;;;;7.60;2.80;;;8.90;98.00;;;;;;5091912;28;20456;-74
2023/02/12 10:58:54;;;;;;;3.93;2.00;;;8.90;98.00;;;;;;5091708;28;20483;-73
2023/02/12 11:01:26;;;;;;;3.00;1.90;;;8.90;98.00;;;;;;5090744;28;20549;-74
2023/02/12 11:03:54;;;;;;;3.87;2.47;;;8.90;98.00;;;;;;5091358;28;20457;-75
2023/02/12 11:06:25;;;;;;;3.60;1.80;;;9.00;98.00;;;;;;5091907;28;20546;-77
2023/02/12 11:08:52;;;;;;;2.90;1.87;;;9.10;98.00;;;;;;5091586;28;20495;-76
2023/02/12 11:11:25;;;;;;;3.90;1.90;;;9.10;98.00;;;;;;5091852;28;20948;-73
2023/02/12 11:13:57;;;;;;;2.50;1.80;;;9.20;98.00;;;;;;5090441;28;20494;-76
2023/02/12 11:16:30;;;;;;;4.90;2.10;;;9.20;98.00;;;;;;5091661;28;20944;-73
2023/02/12 11:19:03;;;;;;;3.03;2.20;;;9.20;98.00;;;;;;5091017;28;20527;-76
2023/02/12 11:21:32;;;;;;;5.47;2.50;;;9.30;98.00;;;;;;5090770;28;20450;-74
2023/02/12 11:24:22;;;;;;;5.07;2.50;;;9.30;98.00;;;;;;5090555;28;20460;-73
2023/02/12 11:26:49;;;;;;;3.83;2.30;;;9.40;98.00;;;;;;5091642;28;20487;-74
2023/02/12 11:29:20;;;;;;;3.37;2.33;;;9.50;98.00;;;;;;5091662;28;20452;-77
2023/02/12 11:32:01;;;;;;;3.27;2.00;;;9.40;98.00;;;;;;5104052;28;20452;-75
2023/02/12 11:34:28;;;;;;;3.90;2.10;;;9.50;98.00;;;;;;5111253;28;20462;-76
2023/02/12 11:36:57;;;;;;;2.47;1.70;;;9.60;98.00;;;;;;5112022;28;20454;-74
2023/02/12 11:39:28;;;;;;;6.60;2.77;;;9.50;98.00;;;;;;5111537;28;21015;-75
2023/02/12 11:41:57;;;;;;;5.60;2.60;;;9.50;98.00;;;;;;5112043;28;20467;-74
2023/02/12 11:44:27;;;;;;;4.80;2.40;;;9.50;98.00;;;;;;5111745;28;20459;-77
2023/02/12 11:46:56;;;;;;;2.50;1.90;;;9.50;98.00;;;;;;5110995;28;20471;-76
2023/02/12 11:49:27;;;;;;;3.87;2.17;;;9.60;98.00;;;;;;5111484;28;20943;-75
2023/02/12 11:51:57;;;;;;;3.77;2.27;;;9.60;98.00;;;;;;5110785;28;20474;-75
2023/02/12 11:54:27;;;;;;;5.90;2.60;;;9.70;98.00;;;;;;5112799;28;20496;-75
2023/02/12 11:56:55;;;;;;;2.10;1.63;;;9.70;98.00;;;;;;5115013;28;20459;-74
2023/02/12 11:59:31;;;;;;;5.10;2.40;;;9.80;98.00;;;;;;5114796;28;20511;-74
2023/02/12 12:02:02;;;;;;;4.37;2.43;;;9.90;98.00;;;;;;5114960;28;20828;-75
2023/02/12 12:04:34;;;;;;;3.10;2.00;;;9.80;98.00;;;;;;5114624;28;20452;-74
2023/02/12 12:07:07;;;;;;;2.00;1.73;;;9.80;98.00;;;;;;5114553;28;20463;-75
2023/02/12 12:09:41;;;;;;;5.73;2.57;;;9.90;98.00;;;;;;5114599;28;20877;-77
2023/02/12 12:12:16;;;;;;;3.00;1.93;;;10.00;98.00;;;;;;5114456;28;20463;-74
2023/02/12 12:20:27;;;;;;;5.17;2.33;;;10.30;98.00;;;;;;5114483;28;20455;-75
2023/02/12 12:23:00;;;;;;;4.53;2.67;;;10.40;98.00;;;;;;5114227;28;20458;-77
2023/02/12 12:25:30;;;;;;;4.00;2.30;;;10.60;98.00;;;;;;5114217;28;20454;-73
2023/02/12 12:28:07;;;;;;;3.87;2.20;;;10.60;98.00;;;;;;5114078;28;20452;-74
2023/02/12 12:30:51;;;;;;;5.43;2.00;;;10.70;98.00;;;;;;5114240;28;20825;-76
2023/02/12 12:33:27;;;;;;;2.83;2.00;;;10.90;98.00;;;;;;5114367;28;20455;-76
2023/02/12 12:36:08;;;;;;;2.27;1.70;;;11.10;98.00;;;;;;5114023;28;20465;-67
2023/02/12 12:38:48;;;;;;;4.90;1.83;;;11.20;98.00;;;;;;5114088;28;21017;-65
2023/02/12 12:41:28;;;;;;;4.17;2.30;;;11.70;98.00;;;;;;5113904;28;20454;-78
2023/02/12 12:44:10;;;;;;;4.43;1.70;;;12.10;98.00;;;;;;5113927;28;20530;-76
2023/02/12 12:47:03;;;;;;;3.60;1.87;;;12.50;98.00;;;;;;5102874;28;20463;-74
2023/02/12 12:49:57;;;;;;;5.13;1.83;;;12.60;98.00;;;;;;5093619;28;20456;-74
2023/02/12 12:52:50;;;;;;;3.83;1.97;;;12.90;98.00;;;;;;5093689;28;21001;-74
2023/02/12 12:55:47;;;;;;;2.07;1.63;;;12.70;98.00;;;;;;5093351;28;20467;-74
2023/02/12 12:58:22;;;;;;;2.83;1.70;;;12.90;98.00;;;;;;5093341;28;20484;-74
2023/02/12 13:01:13;;;;;;;2.43;1.70;;;12.90;98.00;;;;;;5093267;28;20464;-74
2023/02/12 13:04:28;;;;;;;5.27;2.27;;;12.90;98.00;;;;;;5091694;28;20456;-75
2023/02/12 13:07:08;;;;;;;3.20;1.47;;;12.60;98.00;;;;;;5033587;28;20457;-76
2023/02/12 13:09:56;;;;;;;2.93;1.90;;;12.30;98.00;;;;;;5083753;28;21006;-75
2023/02/12 13:12:49;;;;;;;1.60;1.50;;;12.20;98.00;;;;;;5092823;28;20458;-75
2023/02/12 13:15:25;;;;;;;5.43;1.93;;;12.20;98.00;;;;;;5092882;28;20456;-78
2023/02/12 13:18:02;;;;;;;2.30;1.63;;;12.20;98.00;;;;;;5092654;28;20947;-74
2023/02/12 13:20:39;;;;;;;3.53;2.03;;;12.70;98.00;;;;;;5091753;28;20456;-77
2023/02/12 13:23:13;;;;;;;1.60;1.50;;;13.20;98.00;;;;;;5092635;28;20511;-75